Terminal Aerodrome Forecast
Issued by NWS

Home | Current Version | Previous Version | Text Only | Print | Product List | Glossary On
Versions: 1 2 3 4 5 6 7 8 9 10 11 12 13 14 15 16 17 18
000
FTUS46 KSEW 070618 AAA
TAFCLM
TAF AMD
KCLM 070618Z 0706/0806 29012KT P6SM OVC130
      TEMPO 0706/0708 29010G20KT
     FM071200 29009KT P6SM SCT010 OVC130
      TEMPO 0713/0717 BKN010 OVC130
     FM071800 33009KT P6SM OVC130
     FM080300 28009KT P6SM OVC130=

USA.gov is the U.S. government's official web portal to all federal, state and local government web resources and services.